createdAt,value
2022-08-06T00:00:02.891Z,97225.91
2022-08-06T00:02:25.940Z,97222.47
2022-08-06T00:04:55.074Z,97226.31
2022-08-06T00:07:22.351Z,97226.66
2022-08-06T00:09:57.169Z,97219.88
2022-08-06T00:12:29.804Z,97222.06
2022-08-06T00:14:56.126Z,97218.38
2022-08-06T00:17:23.587Z,97217.13
2022-08-06T00:20:00.387Z,97225.81
2022-08-06T00:22:28.843Z,97222.31
2022-08-06T00:24:55.932Z,97219.84
2022-08-06T00:27:28.856Z,97215.66
2022-08-06T00:29:57.458Z,97225.53
2022-08-06T00:32:32.700Z,97217.09
2022-08-06T00:34:59.721Z,97216.22
2022-08-06T00:37:28.762Z,97213.28
2022-08-06T00:40:15.763Z,97213.88
2022-08-06T00:42:44.765Z,97217.78
2022-08-06T00:45:23.528Z,97214.72
2022-08-06T00:48:01.942Z,97217.50
2022-08-06T00:50:30.296Z,97212.22
2022-08-06T00:52:56.899Z,97213.81
2022-08-06T00:55:32.031Z,97211.31
2022-08-06T00:58:02.238Z,97213.19
2022-08-06T01:00:30.216Z,97210.00
2022-08-06T01:02:57.413Z,97207.63
2022-08-06T01:06:04.245Z,97207.59
2022-08-06T01:08:09.367Z,97208.13
2022-08-06T01:10:42.163Z,97212.81
2022-08-06T01:13:25.673Z,97216.50
2022-08-06T01:16:08.466Z,97216.78
2022-08-06T01:18:35.271Z,97228.84
2022-08-06T01:21:57.307Z,97218.91
2022-08-06T01:23:51.216Z,97217.09
2022-08-06T01:26:18.700Z,97220.59
2022-08-06T01:28:46.407Z,97216.31
2022-08-06T01:31:17.974Z,97215.72
2022-08-06T01:33:46.745Z,97226.59
2022-08-06T01:36:13.876Z,97219.88
2022-08-06T01:38:43.830Z,97208.31
2022-08-06T01:41:16.815Z,97213.22
2022-08-06T01:44:05.396Z,97220.13
2022-08-06T01:46:31.294Z,97210.00
2022-08-06T01:49:09.025Z,97199.81
2022-08-06T01:52:29.433Z,97196.41
2022-08-06T01:54:32.434Z,97196.81
2022-08-06T01:56:58.945Z,97206.03
2022-08-06T01:59:24.922Z,97196.19
2022-08-06T02:01:53.277Z,97201.41
2022-08-06T02:04:21.751Z,97198.72
2022-08-06T02:06:49.619Z,97209.91
2022-08-06T02:09:22.795Z,97201.31
2022-08-06T02:12:03.454Z,97202.72
2022-08-06T02:14:33.422Z,97205.41
2022-08-06T02:17:00.557Z,97204.09
2022-08-06T02:19:47.927Z,97206.69
2022-08-06T02:22:27.423Z,97204.75
2022-08-06T02:24:57.090Z,97206.69
2022-08-06T02:27:24.139Z,97201.69
2022-08-06T02:30:09.823Z,97210.72
2022-08-06T02:32:35.813Z,97209.31
2022-08-06T02:35:09.173Z,97208.09
2022-08-06T02:38:01.717Z,97217.69
2022-08-06T02:40:21.474Z,97225.09
2022-08-06T02:42:48.376Z,97216.88
2022-08-06T02:45:14.465Z,97233.03
2022-08-06T02:47:56.085Z,97227.25
2022-08-06T02:50:27.158Z,97232.59
2022-08-06T02:52:57.749Z,97223.25
2022-08-06T02:55:24.622Z,97222.31
2022-08-06T02:58:00.166Z,97233.72
2022-08-06T03:00:29.562Z,97230.78
2022-08-06T03:02:55.788Z,97236.09
2022-08-06T03:05:55.095Z,97244.47
2022-08-06T03:08:08.170Z,97233.53
2022-08-06T03:10:36.722Z,97234.91
2022-08-06T03:13:03.632Z,97238.47
2022-08-06T03:15:57.906Z,97241.03
2022-08-06T03:18:16.110Z,97249.22
2022-08-06T03:20:42.118Z,97246.56
2022-08-06T03:23:08.075Z,97243.69
2022-08-06T03:25:34.035Z,97243.00
2022-08-06T03:28:08.250Z,97241.78
2022-08-06T03:30:34.409Z,97249.53
2022-08-06T03:33:07.085Z,97251.44
2022-08-06T03:35:50.247Z,97245.84
2022-08-06T03:38:17.185Z,97248.53
2022-08-06T03:40:43.155Z,97255.63
2022-08-06T03:43:26.836Z,97250.16
2022-08-06T03:45:56.129Z,97251.97
2022-08-06T03:48:36.008Z,97254.72
2022-08-06T03:51:07.940Z,97261.19
2022-08-06T03:53:38.747Z,97252.47
2022-08-06T03:56:14.482Z,97260.94
2022-08-06T03:58:40.797Z,97258.56
2022-08-06T04:01:07.661Z,97275.13
2022-08-06T04:03:39.658Z,97267.97
2022-08-06T04:06:06.194Z,97275.88
2022-08-06T04:08:41.893Z,97282.03
2022-08-06T04:12:13.283Z,97276.34
2022-08-06T04:14:06.128Z,97287.44
2022-08-06T04:16:35.789Z,97293.47
2022-08-06T04:19:02.842Z,97298.88
2022-08-06T04:23:08.562Z,97285.72
2022-08-06T04:24:15.597Z,97302.56
2022-08-06T04:26:41.954Z,97309.41
2022-08-06T04:29:09.129Z,97306.22
2022-08-06T04:32:11.746Z,97307.47
2022-08-06T04:34:27.109Z,97315.78
2022-08-06T04:36:55.568Z,97316.19
2022-08-06T04:39:24.846Z,97320.84
2022-08-06T04:41:56.853Z,97314.91
2022-08-06T04:44:27.778Z,97325.91
2022-08-06T04:46:54.458Z,97316.28
2022-08-06T04:49:20.559Z,97313.75
2022-08-06T04:52:34.512Z,97317.91
2022-08-06T04:54:33.134Z,97321.91
2022-08-06T04:57:21.928Z,97322.13
2022-08-06T04:59:50.421Z,97326.94
2022-08-06T05:02:17.215Z,97332.75
2022-08-06T05:04:44.658Z,97328.69
2022-08-06T05:07:13.553Z,97333.81
2022-08-06T05:09:43.419Z,97334.81
2022-08-06T05:12:10.193Z,97338.38
2022-08-06T05:14:36.121Z,97346.28
2022-08-06T05:17:02.111Z,97343.41
2022-08-06T05:19:28.874Z,97335.88
2022-08-06T05:22:10.233Z,97332.59
2022-08-06T05:24:39.440Z,97331.28
2022-08-06T05:27:24.509Z,97339.91
2022-08-06T05:30:06.237Z,97352.66
2022-08-06T05:32:33.584Z,97337.31
2022-08-06T05:35:00.410Z,97335.47
2022-08-06T05:38:00.758Z,97328.44
2022-08-06T05:40:20.440Z,97339.13
2022-08-06T05:43:00.625Z,97331.44
2022-08-06T05:45:26.592Z,97344.78
2022-08-06T05:47:56.518Z,97336.47
2022-08-06T05:50:25.265Z,97335.47
2022-08-06T05:52:51.576Z,97339.38
2022-08-06T05:55:19.034Z,97340.31
2022-08-06T05:57:53.895Z,97344.91
2022-08-06T06:00:41.738Z,97344.28
2022-08-06T06:03:08.536Z,97347.47
2022-08-06T06:06:10.640Z,97343.03
2022-08-06T06:08:39.945Z,97350.19
2022-08-06T06:11:22.023Z,97346.34
2022-08-06T06:14:07.805Z,97351.63
2022-08-06T06:16:35.748Z,97350.13
2022-08-06T06:19:03.282Z,97355.56
2022-08-06T06:21:36.652Z,97378.94
2022-08-06T06:24:04.471Z,97375.41
2022-08-06T06:26:33.842Z,97380.69
2022-08-06T06:29:01.316Z,97393.13
2022-08-06T06:32:04.387Z,97390.97
2022-08-06T06:34:23.441Z,97386.03
2022-08-06T06:36:49.487Z,97388.44
2022-08-06T06:39:15.472Z,97390.34
2022-08-06T06:41:44.613Z,97394.91
2022-08-06T06:44:17.650Z,97389.16
2022-08-06T06:46:49.498Z,97398.56
2022-08-06T06:50:00.489Z,97398.16
2022-08-06T06:52:08.355Z,97405.13
2022-08-06T06:54:37.935Z,97393.28
2022-08-06T06:57:04.226Z,97397.75
2022-08-06T07:00:00.863Z,97393.72
2022-08-06T07:02:20.814Z,97402.66
2022-08-06T07:04:50.320Z,97404.38
2022-08-06T07:07:23.380Z,97402.69
2022-08-06T07:09:53.316Z,97403.69
2022-08-06T07:12:25.624Z,97411.19
2022-08-06T07:15:00.812Z,97410.09
2022-08-06T07:17:45.488Z,97415.03
2022-08-06T07:20:13.150Z,97403.94
2022-08-06T07:24:07.946Z,97418.59
2022-08-06T07:25:29.237Z,97416.25
2022-08-06T07:27:56.715Z,97419.31
2022-08-06T07:30:26.119Z,97412.25
2022-08-06T07:32:55.477Z,97411.25
2022-08-06T07:35:21.460Z,97417.50
2022-08-06T07:37:47.596Z,97424.31
2022-08-06T07:40:13.538Z,97432.13
2022-08-06T07:42:41.660Z,97424.28
2022-08-06T07:45:11.143Z,97439.06
2022-08-06T07:47:54.040Z,97437.66
2022-08-06T07:50:23.455Z,97444.09
2022-08-06T07:52:49.970Z,97455.03
2022-08-06T07:55:15.969Z,97459.31
2022-08-06T07:57:55.230Z,97464.09
2022-08-06T08:00:24.415Z,97460.78
2022-08-06T08:02:53.602Z,97464.19
2022-08-06T08:05:19.594Z,97464.78
2022-08-06T08:07:57.177Z,97469.88
2022-08-06T08:10:28.945Z,97475.22
2022-08-06T08:12:55.615Z,97482.41
2022-08-06T08:15:23.132Z,97492.69
2022-08-06T08:17:57.288Z,97494.00
2022-08-06T08:20:24.593Z,97496.84
2022-08-06T08:22:53.719Z,97508.50
2022-08-06T08:25:21.873Z,97512.53
2022-08-06T08:28:12.158Z,97524.53
2022-08-06T08:30:38.968Z,97518.91
2022-08-06T08:33:05.214Z,97528.22
2022-08-06T08:35:38.044Z,97526.06
2022-08-06T08:38:04.076Z,97538.28
2022-08-06T08:40:30.020Z,97535.22
2022-08-06T08:42:56.025Z,97550.16
2022-08-06T08:45:21.966Z,97545.97
2022-08-06T08:47:59.851Z,97553.69
2022-08-06T08:50:29.508Z,97558.13
2022-08-06T08:52:55.465Z,97568.41
2022-08-06T08:57:10.174Z,97580.03
2022-08-06T08:58:37.994Z,97586.41
2022-08-06T09:00:54.782Z,97583.06
2022-08-06T09:03:20.869Z,97605.25
2022-08-06T09:05:47.408Z,97604.13
2022-08-06T09:08:39.715Z,97602.34
2022-08-06T09:10:59.692Z,97620.88
2022-08-06T09:13:50.758Z,97622.72
2022-08-06T09:16:19.345Z,97621.66
2022-08-06T09:18:46.133Z,97634.16
2022-08-06T09:21:12.082Z,97636.06
2022-08-06T09:23:49.372Z,97637.38
2022-08-06T09:26:54.300Z,97643.22
2022-08-06T09:29:23.690Z,97633.59
2022-08-06T09:31:55.989Z,97635.50
2022-08-06T09:34:38.653Z,97633.13
2022-08-06T09:37:05.379Z,97637.25
2022-08-06T09:39:31.661Z,97637.78
2022-08-06T09:42:12.719Z,97638.66
2022-08-06T09:44:41.869Z,97645.19
2022-08-06T09:47:08.152Z,97650.06
2022-08-06T09:49:47.381Z,97645.66
2022-08-06T09:52:23.544Z,97644.25
2022-08-06T09:54:53.150Z,97653.91
2022-08-06T09:57:22.883Z,97653.34
2022-08-06T09:59:50.665Z,97663.13
2022-08-06T10:02:16.747Z,97671.06
2022-08-06T10:04:44.639Z,97675.19
2022-08-06T10:07:10.764Z,97684.59
2022-08-06T10:09:41.595Z,97686.00
2022-08-06T10:12:11.546Z,97685.88
2022-08-06T10:14:39.361Z,97693.69
2022-08-06T10:17:08.196Z,97699.16
2022-08-06T10:19:36.106Z,97698.41
2022-08-06T10:22:03.052Z,97690.72
2022-08-06T10:24:41.796Z,97692.84
2022-08-06T10:27:15.126Z,97696.25
2022-08-06T10:29:41.314Z,97702.03
2022-08-06T10:32:11.689Z,97705.47
2022-08-06T10:34:38.430Z,97701.75
2022-08-06T10:37:10.970Z,97700.34
2022-08-06T10:40:07.557Z,97699.09
2022-08-06T10:42:37.141Z,97700.72
2022-08-06T10:45:12.462Z,97698.91
2022-08-06T10:48:56.767Z,97703.44
2022-08-06T10:50:38.386Z,97693.88
2022-08-06T10:53:11.394Z,97699.16
2022-08-06T10:55:57.330Z,97705.16
2022-08-06T10:58:23.292Z,97711.38
2022-08-06T11:00:56.026Z,97703.84
2022-08-06T11:03:22.611Z,97706.81
2022-08-06T11:05:54.119Z,97708.13
2022-08-06T11:08:40.433Z,97709.28
2022-08-06T11:11:06.608Z,97704.63
2022-08-06T11:13:52.662Z,97705.34
2022-08-06T11:16:19.854Z,97710.94
2022-08-06T11:18:53.562Z,97713.66
2022-08-06T11:21:21.203Z,97708.38
2022-08-06T11:23:58.407Z,97704.84
2022-08-06T11:26:27.268Z,97698.75
2022-08-06T11:28:53.211Z,97701.78
2022-08-06T11:31:19.214Z,97693.22
2022-08-06T11:33:45.964Z,97695.66
2022-08-06T11:36:12.044Z,97693.84
2022-08-06T11:38:38.774Z,97695.78
2022-08-06T11:41:44.760Z,97703.19
2022-08-06T11:44:04.080Z,97696.16
2022-08-06T11:46:36.030Z,97695.56
2022-08-06T11:49:06.128Z,97691.41
2022-08-06T11:51:32.225Z,97693.41
2022-08-06T11:54:08.240Z,97698.59
2022-08-06T11:56:35.399Z,97698.44
2022-08-06T11:59:01.339Z,97699.47
2022-08-06T12:01:33.771Z,97703.56
2022-08-06T12:04:01.120Z,97711.09
2022-08-06T12:06:28.911Z,97704.56
2022-08-06T12:08:55.696Z,97704.16
2022-08-06T12:11:23.737Z,97702.03
2022-08-06T12:13:57.648Z,97703.69
2022-08-06T12:16:24.027Z,97705.88
2022-08-06T12:18:52.787Z,97708.88
2022-08-06T12:21:18.750Z,97705.88
2022-08-06T12:23:56.165Z,97705.47
2022-08-06T12:26:28.447Z,97704.88
2022-08-06T12:28:59.628Z,97695.75
2022-08-06T12:31:35.923Z,97696.47
2022-08-06T12:34:05.184Z,97698.47
2022-08-06T12:36:35.046Z,97695.63
2022-08-06T12:39:01.548Z,97696.66
2022-08-06T12:41:45.595Z,97694.44
2022-08-06T12:44:13.136Z,97692.44
2022-08-06T12:46:40.781Z,97698.63
2022-08-06T12:49:06.902Z,97686.34
2022-08-06T12:51:33.167Z,97691.50
2022-08-06T12:53:59.702Z,97687.66
2022-08-06T12:56:32.017Z,97690.06
2022-08-06T12:58:58.842Z,97686.00
2022-08-06T13:02:08.309Z,97689.97
2022-08-06T13:04:16.828Z,97690.81
2022-08-06T13:06:43.290Z,97689.41
2022-08-06T13:09:10.060Z,97692.66
2022-08-06T13:11:36.994Z,97690.66
2022-08-06T13:14:17.654Z,97684.09
2022-08-06T13:16:53.984Z,97689.91
2022-08-06T13:19:21.240Z,97688.28
2022-08-06T13:21:58.443Z,97686.50
2022-08-06T13:24:24.437Z,97686.38
2022-08-06T13:26:57.160Z,97682.31
2022-08-06T13:30:31.380Z,97686.06
2022-08-06T13:32:19.909Z,97682.41
2022-08-06T13:34:55.018Z,97680.31
2022-08-06T13:37:20.963Z,97685.09
2022-08-06T13:40:05.053Z,97687.81
2022-08-06T13:42:35.303Z,97679.47
2022-08-06T13:45:01.599Z,97676.38
2022-08-06T13:47:39.044Z,97673.88
2022-08-06T13:50:13.591Z,97676.50
2022-08-06T13:52:45.541Z,97687.06
2022-08-06T13:55:26.808Z,97684.72
2022-08-06T13:58:12.755Z,97676.22
2022-08-06T14:00:41.132Z,97687.94
2022-08-06T14:03:07.098Z,97674.38
2022-08-06T14:05:39.788Z,97683.94
2022-08-06T14:08:14.971Z,97683.03
2022-08-06T14:10:52.855Z,97666.88
2022-08-06T14:13:20.661Z,97672.59
2022-08-06T14:15:46.847Z,97677.00
2022-08-06T14:18:13.723Z,97676.69
2022-08-06T14:20:42.100Z,97679.41
2022-08-06T14:23:08.241Z,97679.38
2022-08-06T14:25:52.639Z,97677.88
2022-08-06T14:28:20.267Z,97677.00
2022-08-06T14:30:46.755Z,97675.00
2022-08-06T14:33:19.319Z,97667.75
2022-08-06T14:35:52.686Z,97666.47
2022-08-06T14:38:18.800Z,97670.38
2022-08-06T14:41:01.206Z,97668.38
2022-08-06T14:52:19.444Z,97684.69
2022-08-06T14:54:56.193Z,97677.72
2022-08-06T14:58:03.137Z,97697.25
2022-08-06T15:00:21.656Z,97686.53
2022-08-06T15:03:04.557Z,97697.19
2022-08-06T15:05:41.738Z,97703.91
2022-08-06T15:08:20.132Z,97698.81
2022-08-06T15:10:46.091Z,97691.44
2022-08-06T15:13:12.128Z,97692.44
2022-08-06T15:15:47.014Z,97688.94
2022-08-06T15:18:40.128Z,97675.78
2022-08-06T15:20:59.674Z,97684.44
2022-08-06T15:23:31.137Z,97683.22
2022-08-06T15:26:46.954Z,97676.13
2022-08-06T15:28:57.497Z,97685.88
2022-08-06T15:31:25.470Z,97683.91
2022-08-06T15:33:56.314Z,97690.44
2022-08-06T15:36:22.305Z,97686.69
2022-08-06T15:38:56.040Z,97691.50
2022-08-06T15:41:23.074Z,97695.47
2022-08-06T15:43:51.035Z,97690.22
2022-08-06T15:46:28.625Z,97690.81
2022-08-06T15:48:55.875Z,97688.75
2022-08-06T15:51:30.436Z,97691.25
2022-08-06T15:53:58.129Z,97691.09
2022-08-06T15:56:39.064Z,97688.56
2022-08-06T15:59:12.157Z,97694.84
2022-08-06T16:01:52.771Z,97699.84
2022-08-06T16:04:28.411Z,97692.28
2022-08-06T16:06:55.236Z,97691.75
2022-08-06T16:09:28.045Z,97679.97
2022-08-06T16:11:57.166Z,97687.41
2022-08-06T16:14:33.373Z,97693.47
2022-08-06T16:17:02.660Z,97692.03
2022-08-06T16:19:29.190Z,97692.94
2022-08-06T16:22:00.014Z,97689.28
2022-08-06T16:24:26.557Z,97679.94
2022-08-06T16:26:57.578Z,97674.69
2022-08-06T16:29:24.768Z,97679.09
2022-08-06T16:31:54.003Z,97674.97
2022-08-06T16:34:25.502Z,97680.56
2022-08-06T16:36:56.442Z,97676.19
2022-08-06T16:39:35.741Z,97682.66
2022-08-06T16:42:03.182Z,97677.09
2022-08-06T16:44:35.295Z,97667.69
2022-08-06T16:47:05.119Z,97674.13
2022-08-06T16:50:17.252Z,97661.16
2022-08-06T16:52:44.306Z,97659.94
2022-08-06T16:55:08.213Z,97667.84
2022-08-06T16:57:37.299Z,97663.59
2022-08-06T17:00:04.837Z,97666.44
2022-08-06T17:02:30.840Z,97672.78
2022-08-06T17:04:59.577Z,97663.47
2022-08-06T17:10:25.070Z,97679.88
2022-08-06T17:12:57.952Z,97686.13
2022-08-06T17:15:36.371Z,97677.59
2022-08-06T17:18:03.726Z,97690.72
2022-08-06T17:20:29.971Z,97684.34
2022-08-06T17:22:57.028Z,97693.63
2022-08-06T17:25:50.886Z,97695.53
2022-08-06T17:28:14.230Z,97696.16
2022-08-06T17:30:40.261Z,97697.56
2022-08-06T17:33:08.253Z,97702.59
2022-08-06T17:36:29.928Z,97691.56
2022-08-06T17:38:20.901Z,97694.28
2022-08-06T17:40:50.032Z,97689.97
2022-08-06T17:43:23.080Z,97690.78
2022-08-06T17:46:25.268Z,97687.41
2022-08-06T17:48:48.477Z,97684.66
2022-08-06T17:51:17.234Z,97685.66
2022-08-06T17:53:53.149Z,97688.50
2022-08-06T17:56:30.247Z,97691.09
2022-08-06T17:59:11.191Z,97684.94
2022-08-06T18:01:45.735Z,97691.13
2022-08-06T18:04:21.952Z,97696.84
2022-08-06T18:06:49.025Z,97691.72
2022-08-06T18:10:08.899Z,97696.44
2022-08-06T18:12:00.908Z,97706.00
2022-08-06T18:14:32.426Z,97707.22
2022-08-06T18:16:59.530Z,97706.44
2022-08-06T18:19:34.357Z,97712.94
2022-08-06T18:22:12.222Z,97709.56
2022-08-06T18:24:50.646Z,97712.47
2022-08-06T18:27:53.600Z,97707.72
2022-08-06T18:30:03.853Z,97710.13
2022-08-06T18:32:29.834Z,97726.91
2022-08-06T18:34:55.772Z,97723.00
2022-08-06T18:37:24.883Z,97725.75
2022-08-06T18:40:17.511Z,97726.91
2022-08-06T18:42:42.417Z,97718.19
2022-08-06T18:45:14.537Z,97713.00
2022-08-06T18:47:41.328Z,97713.25
2022-08-06T18:50:07.638Z,97713.81
2022-08-06T18:52:35.142Z,97717.72
2022-08-06T18:55:03.332Z,97724.22
2022-08-06T18:57:37.954Z,97726.06
2022-08-06T19:00:18.336Z,97727.19
2022-08-06T19:02:44.664Z,97720.53
2022-08-06T19:05:13.241Z,97726.66
2022-08-06T19:07:40.530Z,97717.22
2022-08-06T19:10:15.983Z,97726.00
2022-08-06T19:12:44.755Z,97728.66
2022-08-06T19:15:10.693Z,97730.41
2022-08-06T19:18:09.880Z,97739.41
2022-08-06T19:20:23.793Z,97736.69
2022-08-06T19:22:53.344Z,97732.50
2022-08-06T19:25:20.167Z,97732.59
2022-08-06T19:28:30.856Z,97723.69
2022-08-06T19:30:41.690Z,97724.00
2022-08-06T19:33:13.926Z,97728.53
2022-08-06T19:36:07.430Z,97733.09
2022-08-06T21:30:10.395Z,97769.59
2022-08-06T21:32:40.519Z,97763.91
2022-08-06T21:35:06.842Z,97773.78
2022-08-06T21:37:57.628Z,97765.66
2022-08-06T21:40:29.090Z,97771.78
2022-08-06T21:42:59.836Z,97769.47
2022-08-06T21:45:26.628Z,97775.06
2022-08-06T21:48:13.625Z,97773.44
2022-08-06T21:50:43.102Z,97763.75
2022-08-06T21:53:49.503Z,97761.88
2022-08-06T21:56:36.921Z,97772.16
2022-08-06T21:58:46.332Z,97765.38
2022-08-06T22:01:14.450Z,97769.78
2022-08-06T22:04:37.070Z,97772.16
2022-08-06T22:06:38.028Z,97767.25
2022-08-06T22:09:05.091Z,97759.81
2022-08-06T22:12:40.736Z,97757.41
2022-08-06T22:14:17.557Z,97763.84
2022-08-06T22:16:54.984Z,97766.81
2022-08-06T22:19:21.047Z,97771.63
2022-08-06T22:21:59.586Z,97770.47
2022-08-06T22:24:27.019Z,97773.94
2022-08-06T22:26:56.374Z,97767.44
2022-08-06T22:29:23.114Z,97769.19
2022-08-06T22:31:56.950Z,97775.09
2022-08-06T22:34:25.991Z,97777.88
2022-08-06T22:37:03.888Z,97777.25
2022-08-06T22:39:29.990Z,97775.59
2022-08-06T22:42:07.099Z,97780.78
2022-08-06T22:44:57.272Z,97777.88
2022-08-06T22:47:19.677Z,97775.69
2022-08-06T22:50:00.774Z,97774.31
2022-08-06T22:52:51.381Z,97773.50
2022-08-06T22:55:18.266Z,97767.78
2022-08-06T22:59:01.703Z,97772.63
2022-08-06T23:00:30.617Z,97766.44
2022-08-06T23:02:56.730Z,97766.53
2022-08-06T23:05:23.329Z,97770.31
2022-08-06T23:07:54.494Z,97770.31
2022-08-06T23:10:20.676Z,97774.34
2022-08-06T23:12:46.627Z,97775.75
2022-08-06T23:15:30.526Z,97770.16
2022-08-06T23:18:00.340Z,97770.91
2022-08-06T23:20:34.755Z,97769.56
2022-08-06T23:23:01.599Z,97773.31
2022-08-06T23:26:00.856Z,97782.28
2022-08-06T23:28:13.795Z,97781.44
2022-08-06T23:30:41.911Z,97779.84
2022-08-06T23:33:07.907Z,97774.44
2022-08-06T23:35:35.420Z,97777.97
2022-08-06T23:38:32.436Z,97781.19
2022-08-06T23:40:50.056Z,97774.91
2022-08-06T23:43:17.393Z,97787.38
2022-08-06T23:45:47.372Z,97787.50
2022-08-06T23:48:14.210Z,97799.34
2022-08-06T23:50:52.545Z,97791.88
2022-08-06T23:54:06.107Z,97796.94
2022-08-06T23:56:05.994Z,97805.72
2022-08-06T23:58:31.980Z,97803.59
